.
WxDataArchive / Data Records for 2007-08-04
2007-08-03 August 2007 2007-08-05

Data Records for Saturday, 04 August 2007

Time	Temp	Chill	HIndex	Humid	Dewpt	 Wind 	HiWind	WindDir	Rain 	Barom 
-----	----	-----	------	-----	-----	------	------	-------	-----	----- 
00:00	67.6	67.6	67.6	58	52.3	0	0	---	0.00	29.982 
00:05	67.3	67.3	67.3	59	52.5	0	0	---	0.00	29.982 
00:10	66.9	66.9	66.9	60	52.6	0	0	---	0.00	29.981 
00:15	66.4	66.4	66.4	61	52.5	0	0	---	0.00	29.980 
00:20	66.1	66.1	66.1	62	52.7	0	0	---	0.00	29.979 
00:25	65.6	65.6	65.6	62	52.2	0	0	---	0.00	29.981 
00:30	65.3	65.3	65.3	63	52.4	0	0	---	0.00	29.983 
00:35	65.0	65.0	65.0	64	52.5	0	0	---	0.00	29.984 
00:40	64.5	64.5	64.5	64	52.0	0	0	---	0.00	29.984 
00:45	64.3	64.3	64.3	65	52.3	0	0	---	0.00	29.985 
00:50	64.0	64.0	64.0	66	52.4	0	0	---	0.00	29.985 
00:55	63.7	63.7	63.7	67	52.5	0	0	---	0.00	29.986 
01:00	63.5	63.5	63.5	68	52.7	0	0	---	0.00	29.987 
01:05	63.2	63.2	63.2	69	52.9	0	0	---	0.00	29.990 
01:10	62.9	62.9	62.9	70	53.0	0	0	---	0.00	29.991 
01:15	62.7	62.7	62.7	70	52.8	0	0	---	0.00	29.989 
01:20	62.4	62.4	62.4	71	52.9	0	0	---	0.00	29.990 
01:25	62.3	62.3	62.3	71	52.8	0	0	---	0.00	29.991 
01:30	62.1	62.1	62.1	71	52.6	0	0	---	0.00	29.991 
01:35	62.0	62.0	62.0	72	52.9	0	0	---	0.00	29.986 
01:40	61.8	61.8	61.8	73	53.0	0	0	---	0.00	29.985 
01:45	61.6	61.6	61.6	74	53.2	0	0	---	0.00	29.984 
01:50	61.5	61.5	61.5	74	53.1	0	0	---	0.00	29.983 
01:55	61.3	61.3	61.3	75	53.3	0	0	---	0.00	29.981 
02:00	61.2	61.2	61.2	76	53.6	0	0	---	0.00	29.976 
02:05	61.0	61.0	61.0	76	53.4	0	0	---	0.00	29.976 
02:10	60.9	60.9	60.9	77	53.6	0	0	---	0.00	29.975 
02:15	60.7	60.7	60.7	77	53.4	0	0	---	0.00	29.973 
02:20	60.7	60.7	60.7	77	53.4	0	0	---	0.00	29.972 
02:25	60.5	60.5	60.5	77	53.2	0	0	---	0.00	29.972 
02:30	60.4	60.4	60.4	77	53.2	0	0	---	0.00	29.972 
02:35	60.4	60.4	60.4	77	53.2	0	0	---	0.00	29.970 
02:40	60.1	60.1	60.1	77	52.9	0	0	---	0.00	29.972 
02:45	59.9	59.9	59.9	77	52.7	0	0	---	0.00	29.971 
02:50	59.9	59.9	59.9	77	52.7	0	0	---	0.00	29.971 
02:55	59.9	59.9	59.9	77	52.7	0	0	---	0.00	29.973 
03:00	59.9	59.9	59.9	77	52.7	0	0	---	0.00	29.975 
03:05	59.9	59.9	59.9	77	52.7	0	0	---	0.00	29.978 
03:10	59.8	59.8	59.8	77	52.6	0	0	---	0.00	29.978 
03:15	59.8	59.8	59.8	77	52.6	0	0	---	0.00	29.980 
03:20	59.8	59.8	59.8	77	52.6	0	0	---	0.00	29.977 
03:25	59.6	59.6	59.6	77	52.4	0	0	---	0.00	29.971 
03:30	59.6	59.6	59.6	78	52.7	0	0	---	0.00	29.971 
03:35	59.6	59.6	59.6	78	52.7	0	0	---	0.00	29.971 
03:40	59.5	59.5	59.5	78	52.6	0	0	---	0.00	29.972 
03:45	59.2	59.2	59.2	79	52.7	0	0	---	0.00	29.973 
03:50	59.0	59.0	59.0	79	52.5	0	0	---	0.00	29.975 
03:55	58.9	58.9	58.9	79	52.4	0	0	---	0.00	29.975 
04:00	58.9	58.9	58.9	80	52.7	0	0	---	0.00	29.976 
04:05	58.7	58.7	58.7	80	52.5	0	0	---	0.00	29.980 
04:10	58.7	58.7	58.7	81	52.9	0	0	---	0.00	29.981 
04:15	58.6	58.6	58.6	81	52.8	0	0	---	0.00	29.979 
04:20	58.4	58.4	58.4	81	52.6	0	0	---	0.00	29.979 
04:25	58.4	58.4	58.4	81	52.6	0	0	---	0.00	29.982 
04:30	58.3	58.3	58.3	81	52.5	0	0	---	0.00	29.976 
04:35	58.1	58.1	58.1	81	52.3	0	0	---	0.00	29.979 
04:40	58.0	58.0	58.0	81	52.2	0	0	---	0.00	29.974 
04:45	58.0	58.0	58.0	81	52.2	0	0	---	0.00	29.973 
04:50	57.8	57.8	57.8	81	52.0	0	0	---	0.00	29.974 
04:55	57.8	57.8	57.8	81	52.0	0	1	315	0.00	29.974 
05:00	57.8	57.8	57.8	81	52.0	0	1	315	0.00	29.975 
05:05	57.6	57.6	57.6	81	51.8	0	0	---	0.00	29.977 
05:10	57.6	57.6	57.6	81	51.8	0	0	---	0.00	29.978 
05:15	57.5	57.5	57.5	81	51.7	0	0	---	0.00	29.983 
05:20	57.5	57.5	57.5	81	51.7	0	0	---	0.00	29.987 
05:25	57.5	57.5	57.5	81	51.7	0	0	---	0.00	29.989 
05:30	57.3	57.3	57.3	80	51.2	0	0	---	0.00	29.991 
05:35	57.5	57.5	57.5	79	51.0	0	0	---	0.00	29.993 
05:40	57.5	57.5	57.5	79	51.0	0	0	---	0.00	29.995 
05:45	57.5	57.5	57.5	79	51.0	0	0	---	0.00	29.996 
05:50	57.6	57.6	57.6	79	51.1	0	0	---	0.00	29.999 
05:55	57.6	57.6	57.6	79	51.1	0	0	---	0.00	30.001 
06:00	57.6	57.6	57.6	80	51.5	0	0	---	0.00	30.001 
06:05	57.6	57.6	57.6	80	51.5	0	0	---	0.00	30.002 
06:10	57.8	57.8	57.8	81	52.0	0	1	315	0.00	30.005 
06:15	58.3	58.3	58.3	80	52.2	0	0	---	0.00	30.007 
06:20	58.6	58.6	58.6	79	52.1	0	0	---	0.00	30.007 
06:25	59.0	59.0	59.0	78	52.1	0	0	---	0.00	30.008 
06:30	59.8	59.8	59.8	77	52.6	0	2	315	0.00	30.007 
06:35	60.5	60.5	60.5	75	52.5	0	2	315	0.00	30.011 
06:40	61.3	61.3	61.3	73	52.6	0	1	315	0.00	30.013 
06:45	62.0	62.0	62.0	72	52.9	0	1	315	0.00	30.011 
06:50	62.4	62.4	62.4	72	53.2	0	1	315	0.00	30.016 
06:55	63.1	63.1	63.1	72	53.9	0	0	---	0.00	30.013 
07:00	64.2	64.2	64.2	69	53.8	0	2	338	0.00	30.016 
07:05	65.2	65.2	65.2	68	54.4	0	1	338	0.00	30.019 
07:10	66.3	66.3	66.3	66	54.6	0	2	338	0.00	30.018 
07:15	66.9	66.9	66.9	68	56.0	1	2	338	0.00	30.013 
07:20	67.4	67.4	67.4	65	55.2	0	1	0	0.00	30.016 
07:25	67.8	67.8	67.8	65	55.6	1	3	0	0.00	30.016 
07:30	68.3	68.3	68.3	65	56.1	1	3	45	0.00	30.016 
07:35	68.6	68.6	68.6	65	56.4	1	5	45	0.00	30.016 
07:40	68.6	68.6	68.6	67	57.2	1	5	90	0.00	30.018 
07:45	68.8	68.8	68.8	68	57.8	1	4	90	0.00	30.017 
07:50	69.1	69.1	69.1	68	58.1	1	4	90	0.00	30.019 
07:55	69.6	69.6	69.6	67	58.1	2	4	90	0.00	30.020 
08:00	70.1	70.1	70.1	67	58.6	2	4	90	0.00	30.023 
08:05	70.4	70.4	70.4	68	59.3	2	5	90	0.00	30.024 
08:10	70.9	70.9	70.9	66	59.0	2	4	90	0.00	30.024 
08:15	70.8	70.8	70.8	66	58.9	2	4	90	0.00	30.023 
08:20	71.1	71.1	71.1	66	59.2	1	4	90	0.00	30.022 
08:25	71.3	71.3	71.3	66	59.3	2	6	90	0.00	30.024 
08:30	71.1	71.1	71.1	68	60.0	3	6	68	0.00	30.024 
08:35	71.1	71.1	71.1	67	59.6	3	7	90	0.00	30.029 
08:40	71.8	71.8	71.8	66	59.8	1	4	90	0.00	30.027 
08:45	72.1	72.1	72.1	67	60.5	3	6	90	0.00	30.022 
08:50	72.7	72.7	72.7	65	60.2	2	4	112	0.00	30.022 
08:55	73.2	73.2	73.2	64	60.3	2	5	90	0.00	30.022 
09:00	73.9	73.9	73.9	63	60.5	1	3	90	0.00	30.020 
09:05	74.4	74.4	74.4	62	60.5	2	5	90	0.00	30.024 
09:10	74.6	74.6	74.6	62	60.7	2	5	90	0.00	30.021 
09:15	74.6	74.6	74.6	64	61.6	2	5	112	0.00	30.019 
09:20	74.9	74.9	74.9	62	61.0	3	5	112	0.00	30.019 
09:25	74.9	74.9	74.9	62	61.0	2	6	90	0.00	30.020 
09:30	75.3	75.3	77.5	62	61.4	1	5	135	0.00	30.023 
09:35	75.8	75.8	77.9	60	60.9	3	5	90	0.00	30.021 
09:40	76.3	76.3	78.2	60	61.4	2	5	90	0.00	30.021 
09:45	76.0	76.0	78.0	60	61.1	2	5	112	0.00	30.024 
09:50	76.1	76.1	78.1	60	61.2	2	6	90	0.00	30.024 
09:55	76.8	76.8	78.6	60	61.8	2	5	90	0.00	30.019 
10:00	77.2	77.2	78.9	57	60.8	1	5	90	0.00	30.016 
10:05	77.6	77.6	79.2	57	61.1	1	6	68	0.00	30.018 
10:10	77.7	77.7	79.3	58	61.7	2	6	90	0.00	30.016 
10:15	77.7	77.7	79.3	58	61.7	2	5	90	0.00	30.017 
10:20	77.4	77.4	79.1	58	61.4	2	5	90	0.00	30.018 
10:25	77.6	77.6	79.2	57	61.1	2	4	90	0.00	30.015 
10:30	78.3	78.3	79.8	56	61.3	1	5	90	0.00	30.016 
10:35	78.5	78.5	79.9	56	61.5	2	7	90	0.00	30.018 
10:40	78.3	78.3	79.4	50	58.1	1	4	90	0.00	30.019 
10:45	78.6	78.6	79.6	49	57.8	0	3	112	0.00	30.020 
10:50	79.4	79.4	80.3	50	59.1	1	3	112	0.00	30.018 
10:55	80.1	80.1	80.9	50	59.8	2	4	68	0.00	30.018 
11:00	79.9	79.9	80.6	49	59.0	1	4	90	0.00	30.020 
11:05	79.6	79.6	80.2	47	57.6	1	3	90	0.00	30.021 
11:10	79.4	79.4	80.1	47	57.4	1	3	90	0.00	30.023 
11:15	79.4	79.4	80.1	48	58.0	1	4	90	0.00	30.027 
11:20	79.6	79.6	80.3	48	58.2	0	2	90	0.00	30.026 
11:25	80.1	80.1	80.2	42	54.9	1	3	90	0.00	30.022 
11:30	81.1	81.1	81.4	46	58.3	1	3	90	0.00	30.023 
11:35	80.9	80.9	81.2	46	58.2	1	4	90	0.00	30.019 
11:40	81.1	81.1	81.1	44	57.1	1	3	90	0.00	30.019 
11:45	81.2	81.2	81.6	47	59.0	0	2	112	0.00	30.017 
11:50	81.4	81.4	81.6	46	58.6	2	4	112	0.00	30.017 
11:55	81.6	81.6	81.8	46	58.8	1	4	112	0.00	30.016 
12:00	81.6	81.6	81.9	47	59.4	2	4	90	0.00	30.015 
12:05	81.6	81.6	81.8	46	58.8	1	3	112	0.00	30.019 
12:10	82.0	82.0	81.9	44	57.9	1	3	112	0.00	30.019 
12:15	82.4	82.4	82.5	45	58.9	1	3	112	0.00	30.016 
12:20	82.4	82.4	82.6	46	59.5	2	4	90	0.00	30.014 
12:25	82.0	82.0	81.7	42	56.6	1	3	90	0.00	30.012 
12:30	81.8	81.8	81.9	45	58.4	0	1	90	0.00	30.011 
12:35	81.8	81.8	82.0	46	59.0	2	5	68	0.00	30.011 
12:40	82.2	82.2	82.3	45	58.7	1	2	90	0.00	30.011 
12:45	82.6	82.6	82.2	42	57.2	0	1	90	0.00	30.008 
12:50	82.8	82.8	82.4	42	57.3	1	5	90	0.00	30.008 
12:55	82.6	82.6	82.2	42	57.2	0	2	90	0.00	30.005 
13:00	82.8	82.8	82.6	43	58.0	1	2	90	0.00	30.006 
13:05	83.2	83.2	83.4	46	60.2	1	3	90	0.00	30.008 
13:10	83.6	83.6	83.5	44	59.3	1	3	112	0.00	30.008 
13:15	83.6	83.6	83.5	44	59.3	1	3	112	0.00	30.007 
13:20	84.0	84.0	84.3	46	61.0	0	3	112	0.00	30.007 
13:25	84.5	84.5	84.5	44	60.2	0	2	112	0.00	30.006 
13:30	84.7	84.7	84.2	41	58.4	1	4	68	0.00	30.002 
13:35	84.3	84.3	84.3	44	60.0	1	3	90	0.00	30.000 
13:40	84.0	84.0	83.6	42	58.4	1	4	90	0.00	30.001 
13:45	84.0	84.0	83.8	43	59.1	0	1	112	0.00	29.996 
13:50	84.0	84.0	83.4	41	57.7	1	5	112	0.00	29.995 
13:55	83.6	83.6	82.9	40	56.7	1	3	68	0.00	29.993 
14:00	83.4	83.4	83.0	42	57.9	0	2	68	0.00	29.992 
14:05	83.4	83.4	83.2	43	58.5	0	1	68	0.00	29.994 
14:10	83.4	83.4	83.2	43	58.5	1	3	68	0.00	29.993 
14:15	83.0	83.0	82.5	41	56.8	1	2	68	0.00	29.994 
14:20	83.0	83.0	82.6	42	57.5	0	2	68	0.00	29.995 
14:25	83.2	83.2	82.8	42	57.7	0	2	68	0.00	29.994 
14:30	83.4	83.4	83.5	45	59.8	0	1	90	0.00	29.993 
14:35	83.6	83.6	83.7	45	60.0	1	3	90	0.00	29.992 
14:40	83.6	83.6	83.0	41	57.4	1	3	90	0.00	29.992 
14:45	83.8	83.8	83.2	41	57.6	0	1	90	0.00	29.992 
14:50	84.1	84.1	83.6	41	57.8	0	2	90	0.00	29.991 
14:55	84.1	84.1	83.4	40	57.1	1	3	90	0.00	29.990 
15:00	84.0	84.0	83.8	43	59.1	1	3	90	0.00	29.989 
15:05	83.8	83.8	83.2	41	57.6	0	2	90	0.00	29.990 
15:10	84.0	84.0	83.3	40	57.0	0	3	90	0.00	29.989 
15:15	84.0	84.0	83.3	40	57.0	0	2	90	0.00	29.988 
15:20	84.0	84.0	83.3	40	57.0	0	3	90	0.00	29.987 
15:25	84.0	84.0	83.6	42	58.4	0	2	90	0.00	29.985 
15:30	83.8	83.8	83.7	44	59.5	1	2	90	0.00	29.986 
15:35	83.6	83.6	83.9	46	60.6	1	3	90	0.00	29.987 
15:40	83.4	83.4	83.2	43	58.5	1	3	90	0.00	29.986 
15:45	83.4	83.4	83.2	43	58.5	0	2	90	0.00	29.987 
15:50	83.4	83.4	83.2	43	58.5	1	2	112	0.00	29.987 
15:55	83.2	83.2	83.0	43	58.3	1	3	112	0.00	29.986 
16:00	83.2	83.2	83.0	43	58.3	0	1	112	0.00	29.984 
16:05	83.0	83.0	82.8	43	58.2	1	3	112	0.00	29.986 
16:10	83.0	83.0	82.8	43	58.2	0	2	112	0.00	29.983 
16:15	83.2	83.2	82.8	42	57.7	0	2	112	0.00	29.980 
16:20	83.4	83.4	83.3	44	59.2	1	2	112	0.00	29.978 
16:25	83.2	83.2	83.0	43	58.3	0	2	112	0.00	29.976 
16:30	83.0	83.0	83.1	45	59.4	1	2	112	0.00	29.974 
16:35	82.8	82.8	83.0	46	59.9	0	1	112	0.00	29.975 
16:40	82.6	82.6	82.4	43	57.8	0	2	112	0.00	29.973 
16:45	82.6	82.6	82.5	44	58.4	0	2	112	0.00	29.972 
16:50	82.6	82.6	82.7	45	59.1	0	1	112	0.00	29.973 
16:55	82.4	82.4	82.5	45	58.9	0	1	112	0.00	29.971 
17:00	82.2	82.2	82.7	48	60.5	0	1	112	0.00	29.971 
17:05	81.8	81.8	82.6	50	61.3	0	1	112	0.00	29.969 
17:10	81.6	81.6	82.2	49	60.6	0	2	112	0.00	29.965 
17:15	81.4	81.4	81.6	46	58.6	0	2	112	0.00	29.964 
17:20	81.2	81.2	81.5	46	58.4	1	2	112	0.00	29.964 
17:25	81.2	81.2	81.6	47	59.0	0	2	112	0.00	29.964 
17:30	81.1	81.1	81.8	50	60.7	0	0	---	0.00	29.963 
17:35	81.1	81.1	81.8	50	60.7	0	2	112	0.00	29.964 
17:40	80.9	80.9	81.3	47	58.8	0	0	---	0.00	29.964 
17:45	80.9	80.9	81.9	52	61.6	0	0	---	0.00	29.964 
17:50	80.9	80.9	81.6	50	60.5	0	0	---	0.00	29.963 
17:55	80.7	80.7	81.4	50	60.3	0	1	112	0.00	29.963 
18:00	80.5	80.5	81.3	50	60.1	0	2	112	0.00	29.961 
18:05	80.3	80.3	81.3	52	61.0	0	0	---	0.00	29.957 
18:10	79.9	79.9	81.1	54	61.7	0	1	112	0.00	29.954 
18:15	79.9	79.9	81.2	55	62.3	0	2	112	0.00	29.956 
18:20	79.8	79.8	81.2	56	62.7	1	3	112	0.00	29.957 
18:25	79.4	79.4	80.6	54	61.3	1	3	112	0.00	29.957 
18:30	79.4	79.4	80.6	54	61.3	1	2	112	0.00	29.959 
18:35	79.2	79.2	80.5	55	61.6	1	3	112	0.00	29.959 
18:40	79.0	79.0	80.4	56	61.9	0	1	112	0.00	29.959 
18:45	78.8	78.8	80.1	55	61.2	1	3	112	0.00	29.959 
18:50	78.8	78.8	80.1	55	61.2	0	3	112	0.00	29.959 
18:55	78.8	78.8	80.3	57	62.3	1	4	112	0.00	29.960 
19:00	78.6	78.6	80.0	56	61.6	1	3	112	0.00	29.960 
19:05	78.5	78.5	79.9	56	61.5	2	5	112	0.00	29.955 
19:10	78.3	78.3	79.8	57	61.8	0	2	112	0.00	29.957 
19:15	78.1	78.1	79.6	57	61.6	0	1	112	0.00	29.962 
19:20	77.9	77.9	79.5	57	61.4	0	2	112	0.00	29.957 
19:25	77.7	77.7	79.3	58	61.7	1	2	112	0.00	29.956 
19:30	77.6	77.6	79.2	58	61.6	0	2	112	0.00	29.955 
19:35	77.4	77.4	79.1	59	61.9	0	1	112	0.00	29.957 
19:40	77.4	77.4	79.1	59	61.9	1	2	112	0.00	29.958 
19:45	77.2	77.2	78.9	60	62.2	1	2	112	0.00	29.957 
19:50	77.0	77.0	78.8	61	62.5	2	5	90	0.00	29.957 
19:55	77.0	77.0	78.8	61	62.5	2	5	90	0.00	29.957 
20:00	77.0	77.0	78.8	61	62.5	3	6	90	0.00	29.959 
20:05	76.8	76.8	78.6	61	62.3	2	4	90	0.00	29.958 
20:10	76.5	76.5	78.4	61	62.0	2	5	90	0.00	29.959 
20:15	76.3	76.3	78.2	60	61.4	2	4	90	0.00	29.958 
20:20	76.1	76.1	78.1	61	61.7	2	6	90	0.00	29.956 
20:25	76.0	76.0	78.0	59	60.6	2	5	90	0.00	29.957 
20:30	75.8	75.8	77.9	58	59.9	2	7	90	0.00	29.955 
20:35	75.4	75.4	77.7	58	59.6	2	6	90	0.00	29.954 
20:40	75.3	75.3	77.6	58	59.5	1	3	112	0.00	29.958 
20:45	75.1	75.1	77.5	58	59.3	2	6	90	0.00	29.956 
20:50	74.9	74.9	74.9	59	59.6	1	4	90	0.00	29.957 
20:55	74.9	74.9	74.9	58	59.1	1	4	90	0.00	29.956 
21:00	74.7	74.7	74.7	59	59.4	1	3	90	0.00	29.959 
21:05	74.7	74.7	74.7	58	58.9	2	4	90	0.00	29.953 
21:10	74.7	74.7	74.7	57	58.4	2	4	90	0.00	29.953 
21:15	74.6	74.6	74.6	58	58.8	1	4	68	0.00	29.957 
21:20	74.6	74.6	74.6	58	58.8	0	1	68	0.00	29.958 
21:25	74.4	74.4	74.4	59	59.1	1	4	112	0.00	29.959 
21:30	74.2	74.2	74.2	59	58.9	1	4	112	0.00	29.958 
21:35	74.0	74.0	74.0	60	59.2	1	3	112	0.00	29.956 
21:40	73.9	73.9	73.9	60	59.1	1	2	90	0.00	29.956 
21:45	73.7	73.7	73.7	59	58.5	0	2	90	0.00	29.956 
21:50	73.7	73.7	73.7	59	58.5	0	2	90	0.00	29.956 
21:55	73.7	73.7	73.7	58	58.0	1	2	90	0.00	29.961 
22:00	73.7	73.7	73.7	58	58.0	1	2	90	0.00	29.963 
22:05	73.7	73.7	73.7	58	58.0	1	3	90	0.00	29.958 
22:10	73.7	73.7	73.7	58	58.0	1	3	90	0.00	29.958 
22:15	73.7	73.7	73.7	58	58.0	1	2	90	0.00	29.952 
22:20	73.5	73.5	73.5	59	58.3	0	2	90	0.00	29.952 
22:25	73.3	73.3	73.3	59	58.1	1	2	90	0.00	29.951 
22:30	73.3	73.3	73.3	60	58.6	1	4	68	0.00	29.953 
22:35	73.2	73.2	73.2	60	58.5	1	4	68	0.00	29.953 
22:40	73.0	73.0	73.0	60	58.3	1	3	68	0.00	29.952 
22:45	73.0	73.0	73.0	61	58.7	1	3	68	0.00	29.952 
22:50	73.0	73.0	73.0	62	59.2	1	3	112	0.00	29.951 
22:55	72.8	72.8	72.8	63	59.5	1	2	112	0.00	29.952 
23:00	72.7	72.7	72.7	63	59.4	1	2	112	0.00	29.951 
23:05	72.5	72.5	72.5	63	59.2	0	1	112	0.00	29.947 
23:10	72.3	72.3	72.3	62	58.5	1	3	112	0.00	29.941 
23:15	72.1	72.1	72.1	63	58.8	0	2	112	0.00	29.940 
23:20	72.1	72.1	72.1	63	58.8	0	2	112	0.00	29.937 
23:25	72.1	72.1	72.1	63	58.8	0	2	112	0.00	29.935 
23:30	72.1	72.1	72.1	63	58.8	0	2	112	0.00	29.935 
23:35	72.1	72.1	72.1	62	58.3	0	1	90	0.00	29.936 
23:40	72.1	72.1	72.1	62	58.3	0	1	90	0.00	29.939 
23:45	72.1	72.1	72.1	63	58.8	0	1	90	0.00	29.940 
23:50	72.0	72.0	72.0	64	59.1	1	3	90	0.00	29.935 
23:55	71.8	71.8	71.8	65	59.4	0	2	90	0.00	29.933 

CoCoRaHS
IN-AL-39
A2 Web Hosting
Creative Commons License
GoDaddy
Look for:

loaded 2017-12-11 14:27:19 • last modified 2010-11-18 10:43:29
Privacy PolicyDisclaimer
• wx.awcolley.com is powered by PmWiki v.2002016 •
• all content (unless otherwise noted) © 2017 A W Colley